sensor_id;sensor_type;location;lat;lon;timestamp;temperature;humidity
5779;DHT22;2916;49.798;10.022;2022-09-03T00:02:06;15.40;1.00
5779;DHT22;2916;49.798;10.022;2022-09-03T00:04:46;15.40;1.00
5779;DHT22;2916;49.798;10.022;2022-09-03T00:07:27;15.40;1.00
5779;DHT22;2916;49.798;10.022;2022-09-03T00:10:07;15.40;1.00
5779;DHT22;2916;49.798;10.022;2022-09-03T00:12:41;15.40;1.00
5779;DHT22;2916;49.798;10.022;2022-09-03T00:15:12;15.40;1.00
5779;DHT22;2916;49.798;10.022;2022-09-03T00:17:45;15.30;1.00
5779;DHT22;2916;49.798;10.022;2022-09-03T00:20:19;15.30;1.00
5779;DHT22;2916;49.798;10.022;2022-09-03T00:22:53;15.30;1.00
5779;DHT22;2916;49.798;10.022;2022-09-03T00:25:27;15.20;1.00
5779;DHT22;2916;49.798;10.022;2022-09-03T00:28:01;15.10;1.00
5779;DHT22;2916;49.798;10.022;2022-09-03T00:30:34;15.10;1.00
5779;DHT22;2916;49.798;10.022;2022-09-03T00:33:05;15.00;1.00
5779;DHT22;2916;49.798;10.022;2022-09-03T00:35:42;15.00;1.00
5779;DHT22;2916;49.798;10.022;2022-09-03T00:38:12;15.00;1.00
5779;DHT22;2916;49.798;10.022;2022-09-03T00:41:00;14.90;1.00
5779;DHT22;2916;49.798;10.022;2022-09-03T00:43:44;14.90;1.00
5779;DHT22;2916;49.798;10.022;2022-09-03T00:46:25;14.90;1.00
5779;DHT22;2916;49.798;10.022;2022-09-03T00:49:18;14.80;1.00
5779;DHT22;2916;49.798;10.022;2022-09-03T00:52:01;14.70;1.00
5779;DHT22;2916;49.798;10.022;2022-09-03T00:54:44;14.80;1.00
5779;DHT22;2916;49.798;10.022;2022-09-03T00:57:29;14.80;1.00
5779;DHT22;2916;49.798;10.022;2022-09-03T01:00:11;14.80;1.00
5779;DHT22;2916;49.798;10.022;2022-09-03T01:02:57;14.80;1.00
5779;DHT22;2916;49.798;10.022;2022-09-03T01:05:53;14.80;1.00
5779;DHT22;2916;49.798;10.022;2022-09-03T01:08:48;14.80;1.00
5779;DHT22;2916;49.798;10.022;2022-09-03T01:11:32;14.80;1.00
5779;DHT22;2916;49.798;10.022;2022-09-03T01:14:20;14.80;1.00
5779;DHT22;2916;49.798;10.022;2022-09-03T01:17:02;14.70;1.00
5779;DHT22;2916;49.798;10.022;2022-09-03T01:19:57;14.70;1.00
5779;DHT22;2916;49.798;10.022;2022-09-03T01:23:09;14.70;1.00
5779;DHT22;2916;49.798;10.022;2022-09-03T01:25:53;14.70;1.00
5779;DHT22;2916;49.798;10.022;2022-09-03T01:28:45;14.70;1.00
5779;DHT22;2916;49.798;10.022;2022-09-03T01:31:28;14.70;1.00
5779;DHT22;2916;49.798;10.022;2022-09-03T01:34:12;14.80;1.00
5779;DHT22;2916;49.798;10.022;2022-09-03T01:36:54;14.70;1.00
5779;DHT22;2916;49.798;10.022;2022-09-03T01:39:38;14.70;1.00
5779;DHT22;2916;49.798;10.022;2022-09-03T01:42:20;14.60;1.00
5779;DHT22;2916;49.798;10.022;2022-09-03T01:45:39;14.50;1.00
5779;DHT22;2916;49.798;10.022;2022-09-03T01:48:31;14.50;1.00
5779;DHT22;2916;49.798;10.022;2022-09-03T01:51:10;14.40;1.00
5779;DHT22;2916;49.798;10.022;2022-09-03T01:54:25;14.50;1.00
5779;DHT22;2916;49.798;10.022;2022-09-03T01:57:32;14.50;1.00
5779;DHT22;2916;49.798;10.022;2022-09-03T02:00:10;14.60;1.00
5779;DHT22;2916;49.798;10.022;2022-09-03T02:02:41;14.40;1.00
5779;DHT22;2916;49.798;10.022;2022-09-03T02:05:14;14.40;1.00
5779;DHT22;2916;49.798;10.022;2022-09-03T02:07:44;14.40;1.00
5779;DHT22;2916;49.798;10.022;2022-09-03T02:10:15;14.40;1.00
5779;DHT22;2916;49.798;10.022;2022-09-03T02:12:48;14.30;1.00
5779;DHT22;2916;49.798;10.022;2022-09-03T02:15:21;14.20;1.00
5779;DHT22;2916;49.798;10.022;2022-09-03T02:17:53;14.20;1.00
5779;DHT22;2916;49.798;10.022;2022-09-03T02:20:25;14.20;1.00
5779;DHT22;2916;49.798;10.022;2022-09-03T02:22:55;14.20;1.00
5779;DHT22;2916;49.798;10.022;2022-09-03T02:25:28;14.30;1.00
5779;DHT22;2916;49.798;10.022;2022-09-03T02:27:59;14.20;1.00
5779;DHT22;2916;49.798;10.022;2022-09-03T02:30:28;14.20;1.00
5779;DHT22;2916;49.798;10.022;2022-09-03T02:32:56;14.10;1.00
5779;DHT22;2916;49.798;10.022;2022-09-03T02:35:24;14.10;1.00
5779;DHT22;2916;49.798;10.022;2022-09-03T02:37:51;14.10;1.00
5779;DHT22;2916;49.798;10.022;2022-09-03T02:40:18;14.10;1.00
5779;DHT22;2916;49.798;10.022;2022-09-03T02:42:46;14.00;1.00
5779;DHT22;2916;49.798;10.022;2022-09-03T02:45:21;14.00;1.00
5779;DHT22;2916;49.798;10.022;2022-09-03T02:47:56;14.00;1.00
5779;DHT22;2916;49.798;10.022;2022-09-03T02:50:25;14.00;1.00
5779;DHT22;2916;49.798;10.022;2022-09-03T02:52:53;14.00;1.00
5779;DHT22;2916;49.798;10.022;2022-09-03T02:55:20;14.00;1.00
5779;DHT22;2916;49.798;10.022;2022-09-03T02:57:48;14.00;1.00
5779;DHT22;2916;49.798;10.022;2022-09-03T03:00:16;13.90;1.00
5779;DHT22;2916;49.798;10.022;2022-09-03T03:02:43;13.90;1.00
5779;DHT22;2916;49.798;10.022;2022-09-03T03:05:29;13.90;1.00
5779;DHT22;2916;49.798;10.022;2022-09-03T03:08:04;13.90;1.00
5779;DHT22;2916;49.798;10.022;2022-09-03T03:10:31;13.90;1.00
5779;DHT22;2916;49.798;10.022;2022-09-03T03:12:58;13.90;1.00
5779;DHT22;2916;49.798;10.022;2022-09-03T03:15:25;13.80;1.00
5779;DHT22;2916;49.798;10.022;2022-09-03T03:17:54;13.80;1.00
5779;DHT22;2916;49.798;10.022;2022-09-03T03:20:24;13.90;1.00
5779;DHT22;2916;49.798;10.022;2022-09-03T03:22:51;13.80;1.00
5779;DHT22;2916;49.798;10.022;2022-09-03T03:25:18;13.80;1.00
5779;DHT22;2916;49.798;10.022;2022-09-03T03:27:45;13.80;1.00
5779;DHT22;2916;49.798;10.022;2022-09-03T03:30:13;13.70;1.00
5779;DHT22;2916;49.798;10.022;2022-09-03T03:32:40;13.70;1.00
5779;DHT22;2916;49.798;10.022;2022-09-03T03:35:07;13.60;1.00
5779;DHT22;2916;49.798;10.022;2022-09-03T03:37:37;13.60;1.00
5779;DHT22;2916;49.798;10.022;2022-09-03T03:40:05;13.70;1.00
5779;DHT22;2916;49.798;10.022;2022-09-03T03:42:33;13.60;1.00
5779;DHT22;2916;49.798;10.022;2022-09-03T03:45:01;13.70;1.00
5779;DHT22;2916;49.798;10.022;2022-09-03T03:47:28;13.60;1.00
5779;DHT22;2916;49.798;10.022;2022-09-03T03:49:55;13.70;1.00
5779;DHT22;2916;49.798;10.022;2022-09-03T03:52:24;13.60;1.00
5779;DHT22;2916;49.798;10.022;2022-09-03T03:54:53;13.60;1.00
5779;DHT22;2916;49.798;10.022;2022-09-03T03:57:21;13.60;1.00
5779;DHT22;2916;49.798;10.022;2022-09-03T03:59:49;13.60;1.00
5779;DHT22;2916;49.798;10.022;2022-09-03T04:02:16;13.60;1.00
5779;DHT22;2916;49.798;10.022;2022-09-03T04:04:44;13.40;1.00
5779;DHT22;2916;49.798;10.022;2022-09-03T04:07:11;13.40;1.00
5779;DHT22;2916;49.798;10.022;2022-09-03T04:09:38;13.40;1.00
5779;DHT22;2916;49.798;10.022;2022-09-03T04:12:07;13.40;1.00
5779;DHT22;2916;49.798;10.022;2022-09-03T04:14:34;13.30;1.00
5779;DHT22;2916;49.798;10.022;2022-09-03T04:17:01;13.30;1.00
5779;DHT22;2916;49.798;10.022;2022-09-03T04:19:29;13.30;1.00
5779;DHT22;2916;49.798;10.022;2022-09-03T04:21:56;13.40;1.00
5779;DHT22;2916;49.798;10.022;2022-09-03T04:24:23;13.30;1.00
5779;DHT22;2916;49.798;10.022;2022-09-03T04:26:52;13.40;1.00
5779;DHT22;2916;49.798;10.022;2022-09-03T04:29:21;13.40;1.00
5779;DHT22;2916;49.798;10.022;2022-09-03T04:31:48;13.40;1.00
5779;DHT22;2916;49.798;10.022;2022-09-03T04:34:33;13.50;1.00
5779;DHT22;2916;49.798;10.022;2022-09-03T04:37:00;13.50;1.00
5779;DHT22;2916;49.798;10.022;2022-09-03T04:39:27;13.50;1.00
5779;DHT22;2916;49.798;10.022;2022-09-03T04:41:54;13.50;1.00
5779;DHT22;2916;49.798;10.022;2022-09-03T04:44:22;13.50;1.00
5779;DHT22;2916;49.798;10.022;2022-09-03T04:46:49;13.50;1.00
5779;DHT22;2916;49.798;10.022;2022-09-03T04:49:17;13.60;1.00
5779;DHT22;2916;49.798;10.022;2022-09-03T04:51:45;13.60;1.00
5779;DHT22;2916;49.798;10.022;2022-09-03T04:54:12;13.50;1.00
5779;DHT22;2916;49.798;10.022;2022-09-03T04:56:39;13.70;1.00
5779;DHT22;2916;49.798;10.022;2022-09-03T04:59:08;13.70;1.00
5779;DHT22;2916;49.798;10.022;2022-09-03T05:01:38;13.70;1.00
5779;DHT22;2916;49.798;10.022;2022-09-03T05:04:06;13.70;1.00
5779;DHT22;2916;49.798;10.022;2022-09-03T05:06:34;13.60;1.00
5779;DHT22;2916;49.798;10.022;2022-09-03T05:09:03;13.70;1.00
5779;DHT22;2916;49.798;10.022;2022-09-03T05:11:31;13.70;1.00
5779;DHT22;2916;49.798;10.022;2022-09-03T05:13:59;13.70;1.00
5779;DHT22;2916;49.798;10.022;2022-09-03T05:16:27;13.60;1.00
5779;DHT22;2916;49.798;10.022;2022-09-03T05:18:58;13.60;1.00
5779;DHT22;2916;49.798;10.022;2022-09-03T05:21:27;13.60;1.00
5779;DHT22;2916;49.798;10.022;2022-09-03T05:23:55;13.60;1.00
5779;DHT22;2916;49.798;10.022;2022-09-03T05:26:24;13.60;1.00
5779;DHT22;2916;49.798;10.022;2022-09-03T05:28:54;13.70;1.00
5779;DHT22;2916;49.798;10.022;2022-09-03T05:31:26;13.80;1.00
5779;DHT22;2916;49.798;10.022;2022-09-03T05:33:58;14.00;1.00
5779;DHT22;2916;49.798;10.022;2022-09-03T05:36:28;14.00;1.00
5779;DHT22;2916;49.798;10.022;2022-09-03T05:38:57;14.00;1.00
5779;DHT22;2916;49.798;10.022;2022-09-03T05:41:26;14.00;1.00
5779;DHT22;2916;49.798;10.022;2022-09-03T05:43:55;14.10;1.00
5779;DHT22;2916;49.798;10.022;2022-09-03T05:46:24;14.20;1.00
5779;DHT22;2916;49.798;10.022;2022-09-03T05:48:58;14.20;1.00
5779;DHT22;2916;49.798;10.022;2022-09-03T05:51:25;14.20;1.00
5779;DHT22;2916;49.798;10.022;2022-09-03T05:53:53;14.10;1.00
5779;DHT22;2916;49.798;10.022;2022-09-03T05:56:22;14.20;1.00
5779;DHT22;2916;49.798;10.022;2022-09-03T05:58:52;14.20;1.00
5779;DHT22;2916;49.798;10.022;2022-09-03T06:01:23;14.20;1.00
5779;DHT22;2916;49.798;10.022;2022-09-03T06:03:54;14.30;1.00
5779;DHT22;2916;49.798;10.022;2022-09-03T06:06:25;14.40;1.00
5779;DHT22;2916;49.798;10.022;2022-09-03T06:08:54;14.40;1.00
5779;DHT22;2916;49.798;10.022;2022-09-03T06:11:22;14.40;1.00
5779;DHT22;2916;49.798;10.022;2022-09-03T06:13:52;14.50;1.00
5779;DHT22;2916;49.798;10.022;2022-09-03T06:16:20;14.60;1.00
5779;DHT22;2916;49.798;10.022;2022-09-03T06:18:48;14.60;1.00
5779;DHT22;2916;49.798;10.022;2022-09-03T06:21:15;14.70;1.00
5779;DHT22;2916;49.798;10.022;2022-09-03T06:23:48;14.70;1.00
5779;DHT22;2916;49.798;10.022;2022-09-03T06:26:16;14.80;1.00
5779;DHT22;2916;49.798;10.022;2022-09-03T06:28:45;14.80;1.00
5779;DHT22;2916;49.798;10.022;2022-09-03T06:31:15;15.00;1.00
5779;DHT22;2916;49.798;10.022;2022-09-03T06:33:43;15.10;1.00
5779;DHT22;2916;49.798;10.022;2022-09-03T06:36:13;15.20;1.00
5779;DHT22;2916;49.798;10.022;2022-09-03T06:38:44;15.40;1.00
5779;DHT22;2916;49.798;10.022;2022-09-03T06:41:13;15.50;1.00
5779;DHT22;2916;49.798;10.022;2022-09-03T06:43:43;15.60;1.00
5779;DHT22;2916;49.798;10.022;2022-09-03T06:46:12;15.80;1.00
5779;DHT22;2916;49.798;10.022;2022-09-03T06:48:41;15.90;1.00
5779;DHT22;2916;49.798;10.022;2022-09-03T06:51:12;15.90;1.00
5779;DHT22;2916;49.798;10.022;2022-09-03T06:53:41;16.00;1.00
5779;DHT22;2916;49.798;10.022;2022-09-03T06:56:13;16.20;1.00
5779;DHT22;2916;49.798;10.022;2022-09-03T06:58:42;16.10;1.00
5779;DHT22;2916;49.798;10.022;2022-09-03T07:01:13;16.00;1.00
5779;DHT22;2916;49.798;10.022;2022-09-03T07:03:43;16.20;1.00
5779;DHT22;2916;49.798;10.022;2022-09-03T07:06:13;16.20;1.00
5779;DHT22;2916;49.798;10.022;2022-09-03T07:08:44;16.30;1.00
5779;DHT22;2916;49.798;10.022;2022-09-03T07:11:13;16.30;1.00
5779;DHT22;2916;49.798;10.022;2022-09-03T07:13:42;16.30;1.00
5779;DHT22;2916;49.798;10.022;2022-09-03T07:16:13;16.40;1.00
5779;DHT22;2916;49.798;10.022;2022-09-03T07:18:42;16.60;1.00
5779;DHT22;2916;49.798;10.022;2022-09-03T07:21:11;16.80;1.00
5779;DHT22;2916;49.798;10.022;2022-09-03T07:23:41;16.90;1.00
5779;DHT22;2916;49.798;10.022;2022-09-03T07:26:11;17.10;1.00
5779;DHT22;2916;49.798;10.022;2022-09-03T07:28:41;17.20;1.00
5779;DHT22;2916;49.798;10.022;2022-09-03T07:31:13;17.30;1.00
5779;DHT22;2916;49.798;10.022;2022-09-03T07:33:44;17.40;1.00
5779;DHT22;2916;49.798;10.022;2022-09-03T07:36:13;17.40;1.00
5779;DHT22;2916;49.798;10.022;2022-09-03T07:38:43;17.50;1.00
5779;DHT22;2916;49.798;10.022;2022-09-03T07:41:14;17.70;1.00
5779;DHT22;2916;49.798;10.022;2022-09-03T07:43:42;17.70;1.00
5779;DHT22;2916;49.798;10.022;2022-09-03T07:46:11;17.70;1.00
5779;DHT22;2916;49.798;10.022;2022-09-03T07:48:40;17.90;1.00
5779;DHT22;2916;49.798;10.022;2022-09-03T07:51:08;18.20;1.00
5779;DHT22;2916;49.798;10.022;2022-09-03T07:53:36;18.40;1.00
5779;DHT22;2916;49.798;10.022;2022-09-03T07:56:04;18.60;1.00
5779;DHT22;2916;49.798;10.022;2022-09-03T07:58:35;18.90;1.00
5779;DHT22;2916;49.798;10.022;2022-09-03T08:01:05;19.10;1.00
5779;DHT22;2916;49.798;10.022;2022-09-03T08:03:34;19.00;1.00
5779;DHT22;2916;49.798;10.022;2022-09-03T08:06:03;19.40;1.00
5779;DHT22;2916;49.798;10.022;2022-09-03T08:08:31;19.90;1.00
5779;DHT22;2916;49.798;10.022;2022-09-03T08:11:05;20.20;1.00
5779;DHT22;2916;49.798;10.022;2022-09-03T08:13:37;20.30;1.00
5779;DHT22;2916;49.798;10.022;2022-09-03T08:16:05;20.70;1.00
5779;DHT22;2916;49.798;10.022;2022-09-03T08:18:34;20.80;1.00
5779;DHT22;2916;49.798;10.022;2022-09-03T08:21:04;20.80;1.00
5779;DHT22;2916;49.798;10.022;2022-09-03T08:23:35;21.00;1.00
5779;DHT22;2916;49.798;10.022;2022-09-03T08:26:03;20.90;1.00
5779;DHT22;2916;49.798;10.022;2022-09-03T08:28:31;20.80;1.00
5779;DHT22;2916;49.798;10.022;2022-09-03T08:31:05;20.70;1.00
5779;DHT22;2916;49.798;10.022;2022-09-03T08:33:34;20.30;1.00
5779;DHT22;2916;49.798;10.022;2022-09-03T08:36:08;20.30;1.00
5779;DHT22;2916;49.798;10.022;2022-09-03T08:38:38;20.10;1.00
5779;DHT22;2916;49.798;10.022;2022-09-03T08:41:11;20.10;1.00
5779;DHT22;2916;49.798;10.022;2022-09-03T08:43:58;20.20;1.00
5779;DHT22;2916;49.798;10.022;2022-09-03T08:46:45;20.30;1.00
5779;DHT22;2916;49.798;10.022;2022-09-03T08:49:21;20.20;1.00
5779;DHT22;2916;49.798;10.022;2022-09-03T08:51:53;20.40;1.00
5779;DHT22;2916;49.798;10.022;2022-09-03T08:54:25;20.40;1.00
5779;DHT22;2916;49.798;10.022;2022-09-03T08:57:00;20.50;1.00
5779;DHT22;2916;49.798;10.022;2022-09-03T08:59:29;20.50;1.00
5779;DHT22;2916;49.798;10.022;2022-09-03T09:02:08;20.40;1.00
5779;DHT22;2916;49.798;10.022;2022-09-03T09:04:56;20.40;1.00
5779;DHT22;2916;49.798;10.022;2022-09-03T09:07:33;20.90;1.00
5779;DHT22;2916;49.798;10.022;2022-09-03T09:10:11;21.30;1.00
5779;DHT22;2916;49.798;10.022;2022-09-03T09:12:50;21.50;1.00
5779;DHT22;2916;49.798;10.022;2022-09-03T09:15:36;21.70;1.00
5779;DHT22;2916;49.798;10.022;2022-09-03T09:18:24;22.00;1.00
5779;DHT22;2916;49.798;10.022;2022-09-03T09:21:08;22.20;1.00
5779;DHT22;2916;49.798;10.022;2022-09-03T09:23:41;22.20;1.00
5779;DHT22;2916;49.798;10.022;2022-09-03T09:26:14;22.50;1.00
5779;DHT22;2916;49.798;10.022;2022-09-03T09:28:45;22.80;1.00
5779;DHT22;2916;49.798;10.022;2022-09-03T09:31:17;22.80;1.00
5779;DHT22;2916;49.798;10.022;2022-09-03T09:33:46;22.80;1.00
5779;DHT22;2916;49.798;10.022;2022-09-03T09:36:16;22.90;1.00
5779;DHT22;2916;49.798;10.022;2022-09-03T09:38:45;22.90;1.00
5779;DHT22;2916;49.798;10.022;2022-09-03T09:41:15;22.90;1.00
5779;DHT22;2916;49.798;10.022;2022-09-03T09:43:44;23.70;1.00
5779;DHT22;2916;49.798;10.022;2022-09-03T09:46:18;23.40;1.00
5779;DHT22;2916;49.798;10.022;2022-09-03T09:48:50;23.30;1.00
5779;DHT22;2916;49.798;10.022;2022-09-03T09:51:21;23.10;1.00
5779;DHT22;2916;49.798;10.022;2022-09-03T09:54:00;23.10;1.00
5779;DHT22;2916;49.798;10.022;2022-09-03T09:56:28;23.10;1.00
5779;DHT22;2916;49.798;10.022;2022-09-03T09:59:04;23.20;1.00
5779;DHT22;2916;49.798;10.022;2022-09-03T10:01:33;22.80;1.00
5779;DHT22;2916;49.798;10.022;2022-09-03T10:04:10;22.70;1.00
5779;DHT22;2916;49.798;10.022;2022-09-03T10:06:39;23.20;1.00
5779;DHT22;2916;49.798;10.022;2022-09-03T10:09:24;23.20;1.00
5779;DHT22;2916;49.798;10.022;2022-09-03T10:12:07;23.40;1.00
5779;DHT22;2916;49.798;10.022;2022-09-03T10:14:52;23.20;1.00
5779;DHT22;2916;49.798;10.022;2022-09-03T10:17:27;23.50;1.00
5779;DHT22;2916;49.798;10.022;2022-09-03T10:20:04;23.30;1.00
5779;DHT22;2916;49.798;10.022;2022-09-03T10:22:58;23.20;1.00
5779;DHT22;2916;49.798;10.022;2022-09-03T10:25:38;22.90;1.00
5779;DHT22;2916;49.798;10.022;2022-09-03T10:28:15;23.20;1.00
5779;DHT22;2916;49.798;10.022;2022-09-03T10:31:02;23.10;1.00
5779;DHT22;2916;49.798;10.022;2022-09-03T10:33:46;22.80;1.00
5779;DHT22;2916;49.798;10.022;2022-09-03T10:36:24;23.10;1.00
5779;DHT22;2916;49.798;10.022;2022-09-03T10:38:58;23.20;1.00
5779;DHT22;2916;49.798;10.022;2022-09-03T10:41:42;23.30;1.00
5779;DHT22;2916;49.798;10.022;2022-09-03T10:44:30;23.40;1.00
5779;DHT22;2916;49.798;10.022;2022-09-03T10:47:29;23.70;1.00
5779;DHT22;2916;49.798;10.022;2022-09-03T10:50:12;24.30;1.00
5779;DHT22;2916;49.798;10.022;2022-09-03T10:52:58;24.80;1.00
5779;DHT22;2916;49.798;10.022;2022-09-03T10:55:40;25.20;1.00
5779;DHT22;2916;49.798;10.022;2022-09-03T10:58:47;25.10;1.00
5779;DHT22;2916;49.798;10.022;2022-09-03T11:01:33;25.30;1.00
5779;DHT22;2916;49.798;10.022;2022-09-03T11:04:22;24.30;1.00
5779;DHT22;2916;49.798;10.022;2022-09-03T11:07:00;24.60;1.00
5779;DHT22;2916;49.798;10.022;2022-09-03T11:09:36;24.80;1.00
5779;DHT22;2916;49.798;10.022;2022-09-03T11:12:09;25.00;1.00
5779;DHT22;2916;49.798;10.022;2022-09-03T11:14:45;24.70;1.00
5779;DHT22;2916;49.798;10.022;2022-09-03T11:17:21;25.00;1.00
5779;DHT22;2916;49.798;10.022;2022-09-03T11:19:55;25.20;1.00
5779;DHT22;2916;49.798;10.022;2022-09-03T11:22:32;24.70;1.00
5779;DHT22;2916;49.798;10.022;2022-09-03T11:25:03;25.10;1.00
5779;DHT22;2916;49.798;10.022;2022-09-03T11:27:48;25.60;1.00
5779;DHT22;2916;49.798;10.022;2022-09-03T11:30:25;26.10;1.00
5779;DHT22;2916;49.798;10.022;2022-09-03T11:32:59;26.50;1.00
5779;DHT22;2916;49.798;10.022;2022-09-03T11:35:38;25.90;1.00
5779;DHT22;2916;49.798;10.022;2022-09-03T11:38:19;25.20;1.00
5779;DHT22;2916;49.798;10.022;2022-09-03T11:41:02;25.30;1.00
5779;DHT22;2916;49.798;10.022;2022-09-03T11:43:36;25.00;1.00
5779;DHT22;2916;49.798;10.022;2022-09-03T11:46:08;25.10;1.00
5779;DHT22;2916;49.798;10.022;2022-09-03T11:48:40;25.80;1.00
5779;DHT22;2916;49.798;10.022;2022-09-03T11:51:30;26.50;1.00
5779;DHT22;2916;49.798;10.022;2022-09-03T11:54:03;26.10;1.00
5779;DHT22;2916;49.798;10.022;2022-09-03T11:56:34;26.10;1.00
5779;DHT22;2916;49.798;10.022;2022-09-03T11:59:21;25.70;1.00
5779;DHT22;2916;49.798;10.022;2022-09-03T12:01:52;25.70;1.00
5779;DHT22;2916;49.798;10.022;2022-09-03T12:04:30;26.20;1.00
5779;DHT22;2916;49.798;10.022;2022-09-03T12:07:18;25.70;1.00
5779;DHT22;2916;49.798;10.022;2022-09-03T12:10:18;25.80;1.00
5779;DHT22;2916;49.798;10.022;2022-09-03T12:13:15;26.10;1.00
5779;DHT22;2916;49.798;10.022;2022-09-03T12:16:13;25.90;1.00
5779;DHT22;2916;49.798;10.022;2022-09-03T12:18:49;26.10;1.00
5779;DHT22;2916;49.798;10.022;2022-09-03T12:21:20;26.40;1.00
5779;DHT22;2916;49.798;10.022;2022-09-03T12:23:48;26.80;1.00
5779;DHT22;2916;49.798;10.022;2022-09-03T12:26:19;26.60;1.00
5779;DHT22;2916;49.798;10.022;2022-09-03T12:28:51;26.10;1.00
5779;DHT22;2916;49.798;10.022;2022-09-03T12:31:22;25.50;1.00
5779;DHT22;2916;49.798;10.022;2022-09-03T12:33:55;25.80;1.00
5779;DHT22;2916;49.798;10.022;2022-09-03T12:36:26;25.90;1.00
5779;DHT22;2916;49.798;10.022;2022-09-03T12:39:07;26.10;1.00
5779;DHT22;2916;49.798;10.022;2022-09-03T12:41:35;26.50;1.00
5779;DHT22;2916;49.798;10.022;2022-09-03T12:44:04;26.30;1.00
5779;DHT22;2916;49.798;10.022;2022-09-03T12:46:32;26.30;1.00
5779;DHT22;2916;49.798;10.022;2022-09-03T12:49:00;26.10;1.00
5779;DHT22;2916;49.798;10.022;2022-09-03T12:51:33;26.40;1.00
5779;DHT22;2916;49.798;10.022;2022-09-03T12:54:09;26.50;1.00
5779;DHT22;2916;49.798;10.022;2022-09-03T12:56:41;26.90;1.00
5779;DHT22;2916;49.798;10.022;2022-09-03T12:59:14;26.70;1.00
5779;DHT22;2916;49.798;10.022;2022-09-03T13:01:47;26.70;1.00
5779;DHT22;2916;49.798;10.022;2022-09-03T13:04:19;26.80;1.00
5779;DHT22;2916;49.798;10.022;2022-09-03T13:06:54;26.60;1.00
5779;DHT22;2916;49.798;10.022;2022-09-03T13:09:28;26.30;1.00
5779;DHT22;2916;49.798;10.022;2022-09-03T13:11:58;26.20;1.00
5779;DHT22;2916;49.798;10.022;2022-09-03T13:14:41;26.10;1.00
5779;DHT22;2916;49.798;10.022;2022-09-03T13:17:23;26.10;1.00
5779;DHT22;2916;49.798;10.022;2022-09-03T13:20:20;26.10;1.00
5779;DHT22;2916;49.798;10.022;2022-09-03T13:23:10;26.10;1.00
5779;DHT22;2916;49.798;10.022;2022-09-03T13:25:54;26.20;1.00
5779;DHT22;2916;49.798;10.022;2022-09-03T13:28:39;26.20;1.00
5779;DHT22;2916;49.798;10.022;2022-09-03T13:31:25;26.30;1.00
5779;DHT22;2916;49.798;10.022;2022-09-03T13:34:02;26.20;1.00
5779;DHT22;2916;49.798;10.022;2022-09-03T13:36:41;26.30;1.00
5779;DHT22;2916;49.798;10.022;2022-09-03T13:39:21;26.30;1.00
5779;DHT22;2916;49.798;10.022;2022-09-03T13:41:55;26.30;1.00
5779;DHT22;2916;49.798;10.022;2022-09-03T13:44:36;26.40;1.00
5779;DHT22;2916;49.798;10.022;2022-09-03T13:47:18;26.20;1.00
5779;DHT22;2916;49.798;10.022;2022-09-03T13:49:57;26.40;1.00
5779;DHT22;2916;49.798;10.022;2022-09-03T13:52:50;26.40;1.00
5779;DHT22;2916;49.798;10.022;2022-09-03T13:55:27;26.50;1.00
5779;DHT22;2916;49.798;10.022;2022-09-03T13:58:05;26.50;1.00
5779;DHT22;2916;49.798;10.022;2022-09-03T14:00:46;26.60;1.00
5779;DHT22;2916;49.798;10.022;2022-09-03T14:03:29;26.60;1.00
5779;DHT22;2916;49.798;10.022;2022-09-03T14:06:07;26.40;1.00
5779;DHT22;2916;49.798;10.022;2022-09-03T14:08:56;26.20;1.00
5779;DHT22;2916;49.798;10.022;2022-09-03T14:11:33;26.10;1.00
5779;DHT22;2916;49.798;10.022;2022-09-03T14:14:20;26.20;1.00
5779;DHT22;2916;49.798;10.022;2022-09-03T14:17:09;25.90;1.00
5779;DHT22;2916;49.798;10.022;2022-09-03T14:19:47;26.10;1.00
5779;DHT22;2916;49.798;10.022;2022-09-03T14:22:22;26.10;1.00
5779;DHT22;2916;49.798;10.022;2022-09-03T14:24:56;25.70;1.00
5779;DHT22;2916;49.798;10.022;2022-09-03T14:27:28;26.00;1.00
5779;DHT22;2916;49.798;10.022;2022-09-03T14:29:59;26.30;1.00
5779;DHT22;2916;49.798;10.022;2022-09-03T14:32:38;26.20;1.00
5779;DHT22;2916;49.798;10.022;2022-09-03T14:35:32;26.60;1.00
5779;DHT22;2916;49.798;10.022;2022-09-03T14:41:21;26.80;1.00
5779;DHT22;2916;49.798;10.022;2022-09-03T14:44:37;26.30;1.00
5779;DHT22;2916;49.798;10.022;2022-09-03T14:47:28;26.80;1.00
5779;DHT22;2916;49.798;10.022;2022-09-03T14:50:12;26.90;1.00
5779;DHT22;2916;49.798;10.022;2022-09-03T14:53:10;27.00;1.00
5779;DHT22;2916;49.798;10.022;2022-09-03T15:02:20;27.00;1.00
5779;DHT22;2916;49.798;10.022;2022-09-03T15:05:09;26.80;1.00
5779;DHT22;2916;49.798;10.022;2022-09-03T15:07:44;27.00;1.00
5779;DHT22;2916;49.798;10.022;2022-09-03T15:10:24;27.10;1.00
5779;DHT22;2916;49.798;10.022;2022-09-03T15:13:09;26.80;1.00
5779;DHT22;2916;49.798;10.022;2022-09-03T15:15:53;26.70;1.00
5779;DHT22;2916;49.798;10.022;2022-09-03T15:18:45;26.60;1.00
5779;DHT22;2916;49.798;10.022;2022-09-03T15:21:33;26.50;1.00
5779;DHT22;2916;49.798;10.022;2022-09-03T15:24:14;26.60;1.00
5779;DHT22;2916;49.798;10.022;2022-09-03T15:27:09;26.90;1.00
5779;DHT22;2916;49.798;10.022;2022-09-03T15:29:51;26.70;1.00
5779;DHT22;2916;49.798;10.022;2022-09-03T15:32:45;26.60;1.00
5779;DHT22;2916;49.798;10.022;2022-09-03T15:35:36;26.70;1.00
5779;DHT22;2916;49.798;10.022;2022-09-03T15:38:19;25.80;1.00
5779;DHT22;2916;49.798;10.022;2022-09-03T15:40:56;25.30;1.00
5779;DHT22;2916;49.798;10.022;2022-09-03T15:43:31;25.40;1.00
5779;DHT22;2916;49.798;10.022;2022-09-03T15:46:02;25.30;1.00
5779;DHT22;2916;49.798;10.022;2022-09-03T15:48:44;25.40;1.00
5779;DHT22;2916;49.798;10.022;2022-09-03T15:51:19;25.70;1.00
5779;DHT22;2916;49.798;10.022;2022-09-03T15:53:55;25.90;1.00
5779;DHT22;2916;49.798;10.022;2022-09-03T15:56:31;26.10;1.00
5779;DHT22;2916;49.798;10.022;2022-09-03T15:59:13;26.20;1.00
5779;DHT22;2916;49.798;10.022;2022-09-03T16:01:50;26.40;1.00
5779;DHT22;2916;49.798;10.022;2022-09-03T16:04:32;26.40;1.00
5779;DHT22;2916;49.798;10.022;2022-09-03T16:07:16;26.60;1.00
5779;DHT22;2916;49.798;10.022;2022-09-03T16:09:55;26.90;1.00
5779;DHT22;2916;49.798;10.022;2022-09-03T16:12:35;26.30;1.00
5779;DHT22;2916;49.798;10.022;2022-09-03T16:15:15;26.40;1.00
5779;DHT22;2916;49.798;10.022;2022-09-03T16:17:52;26.50;1.00
5779;DHT22;2916;49.798;10.022;2022-09-03T16:20:33;26.50;1.00
5779;DHT22;2916;49.798;10.022;2022-09-03T16:23:09;26.10;1.00
5779;DHT22;2916;49.798;10.022;2022-09-03T16:25:48;26.00;1.00
5779;DHT22;2916;49.798;10.022;2022-09-03T16:28:27;26.00;1.00
5779;DHT22;2916;49.798;10.022;2022-09-03T16:31:10;25.80;1.00
5779;DHT22;2916;49.798;10.022;2022-09-03T16:33:53;25.80;1.00
5779;DHT22;2916;49.798;10.022;2022-09-03T16:36:38;25.80;1.00
5779;DHT22;2916;49.798;10.022;2022-09-03T16:39:23;25.60;1.00
5779;DHT22;2916;49.798;10.022;2022-09-03T16:42:07;25.40;1.00
5779;DHT22;2916;49.798;10.022;2022-09-03T16:44:49;25.40;1.00
5779;DHT22;2916;49.798;10.022;2022-09-03T16:47:40;25.20;1.00
5779;DHT22;2916;49.798;10.022;2022-09-03T16:50:29;25.00;1.00
5779;DHT22;2916;49.798;10.022;2022-09-03T16:53:12;24.90;1.00
5779;DHT22;2916;49.798;10.022;2022-09-03T16:56:01;24.90;1.00
5779;DHT22;2916;49.798;10.022;2022-09-03T16:58:48;24.90;1.00
5779;DHT22;2916;49.798;10.022;2022-09-03T17:01:37;24.70;1.00
5779;DHT22;2916;49.798;10.022;2022-09-03T17:07:46;24.40;1.00
5779;DHT22;2916;49.798;10.022;2022-09-03T17:10:30;24.30;1.00
5779;DHT22;2916;49.798;10.022;2022-09-03T17:16:26;24.00;1.00